Time;durP1;ratioP1;P1;durP2;ratioP2;P2;SDS_P1;SDS_P2;PMS_P1;PMS_P2;Temp;Humidity;BMP_temperature;BMP_pressure;BME280_temperature;BME280_humidity;BME280_pressure;Samples;Min_cycle;Max_cycle;Signal;HPM_P1;HPM_P2
2023/05/13 00:00:28;;;;;;;;;;;;;;;22.22;28.94;98484.22;4995418;28;963;-76
2023/05/13 00:02:53;;;;;;;;;;;;;;;21.61;29.63;98484.63;4994834;28;1977;-75
2023/05/13 00:05:19;;;;;;;;;;;;;;;21.46;29.89;98481.25;5017602;28;988;-76
2023/05/13 00:07:45;;;;;;;;;;;;;;;21.19;30.24;98479.28;5034463;28;1045;-76
2023/05/13 00:10:10;;;;;;;;;;;;;;;21.47;29.85;98471.53;5047348;28;1099;-76
2023/05/13 00:12:36;;;;;;;;;;;;;;;21.78;29.51;98469.31;5009915;28;1338066;-76
2023/05/13 00:15:02;;;;;;;;;;;;;;;21.63;29.59;98477.28;5027131;28;1099;-76
2023/05/13 00:17:27;;;;;;;;;;;;;;;21.41;30.03;98470.44;5045500;28;1069;-76
2023/05/13 00:19:53;;;;;;;;;;;;;;;21.51;30.07;98475.09;5116237;28;1111;-75
2023/05/13 00:22:19;;;;;;;;;;;;;;;21.62;29.72;98478.53;5098721;28;1910;-76
2023/05/13 00:24:44;;;;;;;;;;;;;;;21.37;30.04;98478.97;5115990;28;925;-75
2023/05/13 00:27:10;;;;;;;;;;;;;;;22.02;29.39;98470.03;5081945;28;964;-75
2023/05/13 00:29:36;;;;;;;;;;;;;;;22.22;29.13;98481.38;5081860;28;1125;-74
2023/05/13 00:32:02;;;;;;;;;;;;;;;22.45;28.63;98474.81;5098723;28;988;-76
2023/05/13 00:34:28;;;;;;;;;;;;;;;21.78;29.49;98475.78;5099145;28;969;-76
2023/05/13 00:36:53;;;;;;;;;;;;;;;21.56;29.53;98480.28;5082057;28;1015;-75
2023/05/13 00:39:19;;;;;;;;;;;;;;;21.26;30.10;98481.97;5058316;28;1126;-76
2023/05/13 00:41:44;;;;;;;;;;;;;;;21.68;29.61;98479.63;5055623;28;1913;-75
2023/05/13 00:44:10;;;;;;;;;;;;;;;21.58;29.82;98474.97;5054754;28;946;-75
2023/05/13 00:46:35;;;;;;;;;;;;;;;21.41;29.93;98481.75;5055079;28;979;-76
2023/05/13 00:49:03;;;;;;;;;;;;;;;21.29;30.17;98481.09;5038186;28;1237;-76
2023/05/13 00:51:28;;;;;;;;;;;;;;;21.53;29.90;98481.13;5054714;28;1020;-75
2023/05/13 00:53:54;;;;;;;;;;;;;;;22.31;28.94;98479.56;5054977;28;978;-76
2023/05/13 00:56:20;;;;;;;;;;;;;;;21.91;29.56;98490.09;5038115;28;1243;-75
2023/05/13 00:58:46;;;;;;;;;;;;;;;21.96;29.05;98474.59;5054861;28;1013;-76
2023/05/13 01:01:14;;;;;;;;;;;;;;;21.96;29.20;98488.78;5037972;28;1974;-76
2023/05/13 01:03:59;;;;;;;;;;;;;;;21.53;29.68;98495.28;5054620;28;1000;-76
2023/05/13 01:06:28;;;;;;;;;;;;;;;21.69;29.07;98491.75;5021451;28;1126;-76
2023/05/13 01:08:57;;;;;;;;;;;;;;;21.63;29.79;98494.28;5037870;28;1158;-75
2023/05/13 01:11:29;;;;;;;;;;;;;;;21.53;29.99;98490.41;5074814;28;1057;-76
2023/05/13 01:14:00;;;;;;;;;;;;;;;21.39;30.24;98487.03;5042354;28;1249;-76
2023/05/13 01:16:29;;;;;;;;;;;;;;;21.25;30.21;98486.03;5075692;28;1033;-76
2023/05/13 01:18:58;;;;;;;;;;;;;;;21.37;30.00;98487.47;5059342;28;1190;-76
2023/05/13 01:21:25;;;;;;;;;;;;;;;21.52;30.08;98488.03;5058921;28;2024;-76
2023/05/13 01:23:51;;;;;;;;;;;;;;;22.36;28.77;98490.38;5058963;28;1260;-75
2023/05/13 01:26:17;;;;;;;;;;;;;;;22.49;28.39;98492.56;5058820;28;1338;-75
2023/05/13 01:28:43;;;;;;;;;;;;;;;22.03;29.12;98485.81;5058751;28;1211;-76
2023/05/13 01:31:10;;;;;;;;;;;;;;;21.72;29.53;98486.03;5037415;28;1292;-76
2023/05/13 01:33:36;;;;;;;;;;;;;;;21.55;29.46;98498.47;5020653;28;942;-76
2023/05/13 01:36:01;;;;;;;;;;;;;;;21.60;29.52;98500.78;5021184;28;1142;-76
2023/05/13 01:38:27;;;;;;;;;;;;;;;21.52;29.97;98488.81;5037575;28;971;-75
2023/05/13 01:40:55;;;;;;;;;;;;;;;21.29;30.35;98492.41;5037107;28;1922;-75
2023/05/13 01:43:20;;;;;;;;;;;;;;;21.43;30.00;98494.25;5020973;28;1423;-75
2023/05/13 01:45:46;;;;;;;;;;;;;;;21.54;30.02;98479.88;4981313;28;1241;-76
2023/05/13 01:48:12;;;;;;;;;;;;;;;21.57;30.07;98487.53;5017180;28;1519;-75
2023/05/13 01:50:44;;;;;;;;;;;;;;;21.73;29.60;98487.63;5001808;28;1100;-75
2023/05/13 01:53:09;;;;;;;;;;;;;;;21.57;29.93;98490.34;4997270;28;1120;-76
2023/05/13 01:55:37;;;;;;;;;;;;;;;21.57;30.21;98496.03;4994417;28;1130;-76
2023/05/13 01:58:04;;;;;;;;;;;;;;;22.32;28.81;98483.97;4962247;28;1180;-75
2023/05/13 02:00:29;;;;;;;;;;;;;;;22.44;28.83;98491.03;4994122;28;1124;-75
2023/05/13 02:02:55;;;;;;;;;;;;;;;22.53;28.67;98493.25;5010782;28;1906;-75
2023/05/13 02:05:21;;;;;;;;;;;;;;;21.91;29.38;98497.78;4997673;28;980;-77
2023/05/13 02:07:47;;;;;;;;;;;;;;;21.67;29.53;98503.50;5013969;28;1163;-75
2023/05/13 02:10:12;;;;;;;;;;;;;;;21.12;30.29;98504.84;4997824;28;1035;-75
2023/05/13 02:12:38;;;;;;;;;;;;;;;21.49;29.99;98511.53;4997704;28;1201;-76
2023/05/13 02:15:04;;;;;;;;;;;;;;;21.53;30.08;98506.59;4977917;28;1235;-76
2023/05/13 02:17:30;;;;;;;;;;;;;;;21.44;30.16;98514.84;4994045;28;1018;-76
2023/05/13 02:19:55;;;;;;;;;;;;;;;21.31;30.40;98509.03;4978143;28;1032;-75
2023/05/13 02:22:21;;;;;;;;;;;;;;;21.47;29.93;98519.66;4977701;28;1883;-75
2023/05/13 02:24:46;;;;;;;;;;;;;;;22.12;28.93;98514.38;5009009;28;1099;-76
2023/05/13 02:27:15;;;;;;;;;;;;;;;22.44;28.64;98507.25;4995878;28;1111;-76
2023/05/13 02:29:41;;;;;;;;;;;;;;;21.78;29.51;98523.94;5000829;28;1242;-76
2023/05/13 02:32:06;;;;;;;;;;;;;;;21.47;29.86;98516.84;5033984;28;988;-76
2023/05/13 02:34:32;;;;;;;;;;;;;;;21.25;29.94;98507.91;4996904;28;1064;-76
2023/05/13 02:36:58;;;;;;;;;;;;;;;21.21;30.25;98513.59;5014049;28;1003;-75
2023/05/13 02:39:23;;;;;;;;;;;;;;;21.42;30.13;98523.00;4997150;28;1084;-76
2023/05/13 02:41:50;;;;;;;;;;;;;;;21.37;30.25;98520.66;4996965;28;1906;-75
2023/05/13 02:44:15;;;;;;;;;;;;;;;21.35;30.23;98520.25;4996982;28;1091;-75
2023/05/13 02:46:43;;;;;;;;;;;;;;;21.56;29.74;98522.75;5027626;28;1107;-75
2023/05/13 02:49:10;;;;;;;;;;;;;;;21.57;29.68;98518.66;5033050;28;1065;-76
2023/05/13 02:51:35;;;;;;;;;;;;;;;22.59;28.16;98519.88;5016849;28;936;-76
2023/05/13 02:54:01;;;;;;;;;;;;;;;22.16;28.93;98526.44;5016871;28;1092;-75
2023/05/13 02:56:28;;;;;;;;;;;;;;;21.80;29.11;98529.94;5033076;28;1155;-76
2023/05/13 02:58:54;;;;;;;;;;;;;;;21.59;29.29;98527.53;5016588;28;1151;-76
2023/05/13 03:01:20;;;;;;;;;;;;;;;21.43;29.49;98530.25;5032962;28;1967;-76
2023/05/13 03:03:46;;;;;;;;;;;;;;;21.54;29.61;98525.97;5016776;28;1539;-76
2023/05/13 03:06:11;;;;;;;;;;;;;;;21.42;30.02;98531.47;5035379;28;984;-75
2023/05/13 03:08:37;;;;;;;;;;;;;;;21.28;29.98;98532.47;5036525;28;1289;-76
2023/05/13 03:11:03;;;;;;;;;;;;;;;21.43;29.79;98530.25;5036620;28;1102;-76
2023/05/13 03:13:29;;;;;;;;;;;;;;;21.23;29.49;98494.16;5019849;28;1148;-75
2023/05/13 03:15:55;;;;;;;;;;;;;;;21.59;29.68;98547.34;5036762;28;1205;-76
2023/05/13 03:18:21;;;;;;;;;;;;;;;22.00;29.07;98541.31;5036326;28;1005;-76
2023/05/13 03:20:47;;;;;;;;;;;;;;;22.24;28.75;98550.59;5016793;28;1278;-75
2023/05/13 03:23:12;;;;;;;;;;;;;;;22.43;28.46;98546.13;5016547;28;1989;-75
2023/05/13 03:25:39;;;;;;;;;;;;;;;21.78;28.97;98545.78;5007111;28;1274;-75
2023/05/13 03:28:07;;;;;;;;;;;;;;;21.67;29.21;98551.66;5059551;28;1378;-76
2023/05/13 03:30:36;;;;;;;;;;;;;;;21.72;29.11;98544.69;5043750;28;1240;-75
2023/05/13 03:33:06;;;;;;;;;;;;;;;21.57;29.38;98552.66;5043477;28;1066;-75
2023/05/13 03:35:32;;;;;;;;;;;;;;;21.57;29.35;98553.44;5059536;28;1111;-76
2023/05/13 03:37:57;;;;;;;;;;;;;;;21.45;29.68;98556.09;5071077;28;1680;-76
2023/05/13 03:40:24;;;;;;;;;;;;;;;21.64;29.34;98563.84;5042828;28;1829;-75
2023/05/13 03:42:50;;;;;;;;;;;;;;;21.53;29.79;98551.91;5043082;28;1910;-75
2023/05/13 03:45:17;;;;;;;;;;;;;;;21.51;29.58;98554.38;5042899;28;1177;-76
2023/05/13 03:47:47;;;;;;;;;;;;;;;21.17;30.10;98552.47;5039136;28;1556;-76
2023/05/13 03:50:16;;;;;;;;;;;;;;;21.28;30.11;98544.59;5039332;28;1162;-75
2023/05/13 03:52:43;;;;;;;;;;;;;;;21.14;30.12;98547.69;5055153;28;1292;-75
2023/05/13 03:55:09;;;;;;;;;;;;;;;21.91;29.08;98548.78;5073205;28;1592;-75
2023/05/13 03:57:34;;;;;;;;;;;;;;;22.51;28.06;98546.78;5057372;28;913;-76
2023/05/13 04:00:02;;;;;;;;;;;;;;;22.40;28.41;98540.56;5057139;28;1131;-75
2023/05/13 04:02:28;;;;;;;;;;;;;;;21.55;29.29;98550.25;5073178;28;1988;-76
2023/05/13 04:04:53;;;;;;;;;;;;;;;21.35;29.88;98551.41;5056916;28;1113;-76
2023/05/13 04:07:19;;;;;;;;;;;;;;;21.33;29.62;98558.31;5059556;28;1438;-76
2023/05/13 04:09:45;;;;;;;;;;;;;;;21.47;29.36;98547.97;5075761;28;1544;-76
2023/05/13 04:12:10;;;;;;;;;;;;;;;21.93;29.21;98552.78;5109171;28;1260;-76
2023/05/13 04:14:36;;;;;;;;;;;;;;;22.28;28.58;98556.19;5076656;28;1166;-75
2023/05/13 04:17:02;;;;;;;;;;;;;;;22.14;28.54;98551.59;5074645;28;1814;-76
2023/05/13 04:19:28;;;;;;;;;;;;;;;21.90;28.59;98552.84;5078555;28;1133;-76
2023/05/13 04:21:54;;;;;;;;;;;;;;;21.50;29.28;98552.75;5061767;28;1975;-76
2023/05/13 04:24:21;;;;;;;;;;;;;;;21.53;29.08;98547.03;5095466;28;963;-75
2023/05/13 04:26:47;;;;;;;;;;;;;;;21.37;29.20;98554.63;5078710;28;1163;-75
2023/05/13 04:29:16;;;;;;;;;;;;;;;21.31;29.63;98563.59;5096778;28;1379;-76
2023/05/13 04:31:41;;;;;;;;;;;;;;;21.14;30.16;98561.84;5098862;28;1232;-75
2023/05/13 04:34:07;;;;;;;;;;;;;;;21.37;29.88;98560.28;5109458;28;1485;-75
2023/05/13 04:36:33;;;;;;;;;;;;;;;21.28;29.86;98563.63;5062037;28;1114;-75
2023/05/13 04:38:59;;;;;;;;;;;;;;;21.37;29.88;98560.28;5061612;28;1443;-76
2023/05/13 04:41:24;;;;;;;;;;;;;;;21.33;30.00;98555.47;5061876;28;1906;-76
2023/05/13 04:43:50;;;;;;;;;;;;;;;22.00;29.51;98557.50;5096659;28;1334;-76
2023/05/13 04:46:16;;;;;;;;;;;;;;;22.30;28.60;98571.50;5081699;28;1165;-76
2023/05/13 04:48:41;;;;;;;;;;;;;;;22.44;28.42;98572.47;5081476;28;1066;-76
2023/05/13 04:51:07;;;;;;;;;;;;;;;21.75;29.30;98574.97;5062118;28;908;-76
2023/05/13 04:53:33;;;;;;;;;;;;;;;21.61;29.59;98581.72;5058296;28;1009;-76
2023/05/13 04:56:01;;;;;;;;;;;;;;;21.53;29.82;98588.72;5055071;28;1374;-76
2023/05/13 04:58:28;;;;;;;;;;;;;;;21.35;30.05;98586.19;5087521;28;1438;-75
2023/05/13 05:00:56;;;;;;;;;;;;;;;21.22;30.23;98588.78;5041324;28;1902;-76
2023/05/13 05:03:22;;;;;;;;;;;;;;;21.46;29.83;98586.81;5034491;28;1153;-76
2023/05/13 05:05:48;;;;;;;;;;;;;;;21.68;29.32;98587.25;5015903;28;1652;-75
2023/05/13 05:08:15;;;;;;;;;;;;;;;21.71;29.54;98586.38;5029859;28;1499;-75
2023/05/13 05:10:41;;;;;;;;;;;;;;;21.98;29.11;98591.97;5011367;28;1241;-76
2023/05/13 05:13:08;;;;;;;;;;;;;;;22.49;28.61;98595.44;4978714;28;1167;-76
2023/05/13 05:15:34;;;;;;;;;;;;;;;22.51;28.42;98592.97;4994092;28;1338;-76
2023/05/13 05:18:03;;;;;;;;;;;;;;;21.87;29.32;98593.41;4998295;28;1375;-77
2023/05/13 05:20:29;;;;;;;;;;;;;;;21.61;29.65;98601.53;4982644;28;1123;-76
2023/05/13 05:22:58;;;;;;;;;;;;;;;21.36;29.90;98599.13;4998589;28;1918;-77
2023/05/13 05:25:25;;;;;;;;;;;;;;;21.52;29.70;98596.41;5017797;28;1447;-76
2023/05/13 05:27:51;;;;;;;;;;;;;;;21.48;29.87;98595.66;5017287;28;1373;-76
2023/05/13 05:30:16;;;;;;;;;;;;;;;21.25;30.13;98592.78;5034303;28;964;-76
2023/05/13 05:32:46;;;;;;;;;;;;;;;21.19;30.10;98605.81;5001885;28;1123;-75
2023/05/13 05:35:14;;;;;;;;;;;;;;;21.12;30.38;98609.56;5005513;28;1324;-75
2023/05/13 05:37:40;;;;;;;;;;;;;;;21.88;29.71;98606.31;5014458;28;1503;-76
2023/05/13 05:40:06;;;;;;;;;;;;;;;22.00;29.30;98605.69;5014311;28;1383;-76
2023/05/13 05:42:35;;;;;;;;;;;;;;;22.16;28.96;98600.13;5013691;28;1981;-76
2023/05/13 05:45:01;;;;;;;;;;;;;;;21.87;29.08;98611.19;5041285;28;1265;-75
2023/05/13 05:47:27;;;;;;;;;;;;;;;21.46;30.01;98597.34;5042225;28;958;-76
2023/05/13 05:49:52;;;;;;;;;;;;;;;21.46;29.63;98598.13;5075013;28;1066;-76
2023/05/13 05:52:18;;;;;;;;;;;;;;;21.46;29.63;98600.19;5109030;28;1058;-75
2023/05/13 05:54:44;;;;;;;;;;;;;;;21.43;29.52;98609.50;5062954;28;1426;-77
2023/05/13 05:57:09;;;;;;;;;;;;;;;21.37;29.70;98605.56;5091684;28;1546;-75
2023/05/13 05:59:35;;;;;;;;;;;;;;;21.25;29.85;98619.06;5017102;28;1063;-75
2023/05/13 06:02:01;;;;;;;;;;;;;;;21.36;29.77;98618.13;5034034;28;1910;-75
2023/05/13 06:04:26;;;;;;;;;;;;;;;21.45;29.92;98616.38;4992751;28;1643;-76
2023/05/13 06:06:52;;;;;;;;;;;;;;;21.80;29.66;98626.25;5017327;28;1233;-76
2023/05/13 06:09:18;;;;;;;;;;;;;;;22.10;28.88;98614.00;5017280;28;1123;-76
2023/05/13 06:11:43;;;;;;;;;;;;;;;22.48;28.20;98624.22;5017123;28;1230;-76
2023/05/13 06:14:09;;;;;;;;;;;;;;;21.84;29.04;98624.19;5023943;28;1650;-76
2023/05/13 06:16:34;;;;;;;;;;;;;;;21.75;29.16;98614.63;5030059;28;1499;-75
2023/05/13 06:19:00;;;;;;;;;;;;;;;21.58;29.69;98613.72;5053785;28;956;-75
2023/05/13 06:21:26;;;;;;;;;;;;;;;21.79;29.03;98613.34;5036802;28;1977;-75
2023/05/13 06:23:51;;;;;;;;;;;;;;;21.52;29.31;98613.41;5046890;28;1464;-76
2023/05/13 06:26:19;;;;;;;;;;;;;;;21.41;29.61;98601.47;5010796;28;1619;-76
2023/05/13 06:28:45;;;;;;;;;;;;;;;21.57;29.43;98614.94;4998994;28;1127;-76
2023/05/13 06:31:10;;;;;;;;;;;;;;;21.78;29.24;98614.56;5040056;28;1193;-76
2023/05/13 06:33:36;;;;;;;;;;;;;;;21.32;29.78;98610.47;5021376;28;1588;-76
2023/05/13 06:36:02;;;;;;;;;;;;;;;21.91;29.31;98616.78;5020424;28;1119;-76
2023/05/13 06:38:27;;;;;;;;;;;;;;;22.24;28.73;98615.78;5003423;28;1197;-76
2023/05/13 06:40:56;;;;;;;;;;;;;;;22.08;28.95;98612.84;5039385;28;1145;-75
2023/05/13 06:43:28;;;;;;;;;;;;;;;21.90;28.96;98620.84;5015736;28;1322;-76
2023/05/13 06:45:57;;;;;;;;;;;;;;;21.92;29.15;98629.72;5013466;28;1185;-76
2023/05/13 06:48:23;;;;;;;;;;;;;;;21.65;29.23;98627.75;5013767;28;1253;-76
2023/05/13 06:50:49;;;;;;;;;;;;;;;21.62;29.39;98625.78;4981795;28;987;-75
2023/05/13 06:53:15;;;;;;;;;;;;;;;21.78;29.11;98631.56;5013311;28;1312;-76
2023/05/13 06:55:41;;;;;;;;;;;;;;;21.75;29.22;98626.75;4997564;28;1098;-76
2023/05/13 06:58:07;;;;;;;;;;;;;;;21.27;30.14;98638.44;5014000;28;1271;-75
2023/05/13 07:00:36;;;;;;;;;;;;;;;21.37;29.90;98656.53;5046886;28;968;-75
2023/05/13 07:03:02;;;;;;;;;;;;;;;22.23;28.85;98642.53;5036811;28;2031;-76
2023/05/13 07:05:28;;;;;;;;;;;;;;;22.61;28.11;98650.69;5036017;28;1347;-76
2023/05/13 07:07:53;;;;;;;;;;;;;;;21.84;29.18;98655.34;5053566;28;1243;-75
2023/05/13 07:10:19;;;;;;;;;;;;;;;21.65;29.34;98644.72;5037081;28;958;-76
2023/05/13 07:12:44;;;;;;;;;;;;;;;21.72;29.28;98650.28;5036417;28;1207;-75
2023/05/13 07:15:10;;;;;;;;;;;;;;;21.45;29.75;98641.00;5039260;28;1395;-75
2023/05/13 07:17:36;;;;;;;;;;;;;;;21.35;29.75;98648.47;5058176;28;941;-76
2023/05/13 07:20:01;;;;;;;;;;;;;;;21.49;29.60;98644.59;5090481;28;1016;-77
2023/05/13 07:22:27;;;;;;;;;;;;;;;21.68;29.42;98649.56;5074434;28;1913;-75
2023/05/13 07:24:53;;;;;;;;;;;;;;;21.65;29.56;98641.91;5059134;28;1354;-75
2023/05/13 07:27:19;;;;;;;;;;;;;;;21.60;29.48;98631.06;5091197;28;1034;-77
2023/05/13 07:29:45;;;;;;;;;;;;;;;21.61;29.53;98637.56;5091114;28;952;-76
2023/05/13 07:32:10;;;;;;;;;;;;;;;21.68;29.16;98643.88;5089880;28;967;-76
2023/05/13 07:34:36;;;;;;;;;;;;;;;21.83;29.51;98642.41;5050119;28;1471;-76
2023/05/13 07:37:03;;;;;;;;;;;;;;;22.29;28.74;98635.13;5059688;28;1134;-75
2023/05/13 07:39:28;;;;;;;;;;;;;;;22.32;28.45;98631.41;5059581;28;1004;-76
2023/05/13 07:41:54;;;;;;;;;;;;;;;22.02;29.02;98632.38;5057288;28;1909;-76
2023/05/13 07:44:20;;;;;;;;;;;;;;;21.59;29.48;98632.31;5060379;28;1375;-76
2023/05/13 07:46:46;;;;;;;;;;;;;;;21.44;29.53;98639.41;5035847;28;1000;-76
2023/05/13 07:49:12;;;;;;;;;;;;;;;21.68;29.33;98631.75;5003039;28;916;-75
2023/05/13 07:51:37;;;;;;;;;;;;;;;21.39;29.83;98637.06;5002591;28;1362;-75
2023/05/13 07:54:03;;;;;;;;;;;;;;;21.57;29.59;98640.44;5003123;28;1330;-75
2023/05/13 07:56:29;;;;;;;;;;;;;;;21.36;29.72;98640.78;5036573;28;938;-75
2023/05/13 07:58:55;;;;;;;;;;;;;;;21.41;29.63;98629.78;5003344;28;965;-76
2023/05/13 08:01:20;;;;;;;;;;;;;;;21.84;29.24;98634.72;5018580;28;1911;-76
2023/05/13 08:03:46;;;;;;;;;;;;;;;22.26;28.89;98626.69;5002367;28;1684;-75
2023/05/13 08:06:11;;;;;;;;;;;;;;;22.35;28.39;98618.41;5035967;28;982;-76
2023/05/13 08:08:37;;;;;;;;;;;;;;;21.99;29.01;98609.75;5019410;28;965;-75
2023/05/13 08:11:02;;;;;;;;;;;;;;;21.72;29.28;98602.16;5035584;28;1511;-75
2023/05/13 08:13:28;;;;;;;;;;;;;;;21.65;29.37;98610.75;5047227;28;1560;-76
2023/05/13 08:15:54;;;;;;;;;;;;;;;21.47;29.79;98601.78;5055737;28;947;-76
2023/05/13 08:18:19;;;;;;;;;;;;;;;21.73;29.22;98606.56;5066296;28;1553;-75
2023/05/13 08:20:45;;;;;;;;;;;;;;;21.33;29.89;98600.75;5076473;28;991;-76
2023/05/13 08:23:10;;;;;;;;;;;;;;;21.42;29.65;98603.06;5057831;28;1910;-76
2023/05/13 08:25:36;;;;;;;;;;;;;;;21.58;29.88;98603.19;5077486;28;921;-75
2023/05/13 08:28:02;;;;;;;;;;;;;;;22.31;28.84;98615.63;5093346;28;1126;-76
2023/05/13 08:30:28;;;;;;;;;;;;;;;22.57;28.38;98613.09;5092244;28;954;-76
2023/05/13 08:32:53;;;;;;;;;;;;;;;22.74;27.89;98606.25;5096185;28;1467;-75
2023/05/13 08:35:19;;;;;;;;;;;;;;;22.08;28.80;98607.16;5057839;28;1238;-75
2023/05/13 08:37:44;;;;;;;;;;;;;;;21.79;29.35;98610.50;5039494;28;1137;-75
2023/05/13 08:40:10;;;;;;;;;;;;;;;21.75;29.47;98604.09;5057506;28;862;-75
2023/05/13 08:42:37;;;;;;;;;;;;;;;21.58;29.66;98606.00;5072462;28;1906;-76
2023/05/13 08:45:04;;;;;;;;;;;;;;;21.72;29.34;98593.66;5089720;28;1128;-76
2023/05/13 08:47:30;;;;;;;;;;;;;;;21.80;29.39;98600.78;5073141;28;947;-73
2023/05/13 08:49:55;;;;;;;;;;;;;;;21.72;29.42;98610.66;5057068;28;1000;-73
2023/05/13 08:52:21;;;;;;;;;;;;;;;21.57;29.54;98609.28;5057167;28;1251;-74
2023/05/13 08:54:46;;;;;;;;;;;;;;;21.18;30.16;98607.84;5089405;28;911;-73
2023/05/13 08:57:12;;;;;;;;;;;;;;;21.51;29.89;98606.16;5072581;28;1196;-73
2023/05/13 08:59:38;;;;;;;;;;;;;;;21.26;30.26;98606.50;5089113;28;891;-73
2023/05/13 09:02:03;;;;;;;;;;;;;;;21.40;29.83;98604.69;5072089;28;1969;-73
2023/05/13 09:04:29;;;;;;;;;;;;;;;21.79;29.53;98599.19;5038550;28;1120;-73
2023/05/13 09:06:55;;;;;;;;;;;;;;;22.25;28.83;98606.03;5038927;28;968;-73
2023/05/13 09:09:20;;;;;;;;;;;;;;;22.49;28.67;98608.81;5074124;28;986;-74
2023/05/13 09:11:47;;;;;;;;;;;;;;;22.03;29.15;98602.00;5037762;28;1320;-72
2023/05/13 09:14:13;;;;;;;;;;;;;;;21.75;29.56;98598.44;5037690;28;1450;-73
2023/05/13 09:16:38;;;;;;;;;;;;;;;21.49;29.80;98608.59;5037985;28;999;-74
2023/05/13 09:19:04;;;;;;;;;;;;;;;21.39;30.23;98609.56;5054435;28;1071;-72
2023/05/13 09:21:30;;;;;;;;;;;;;;;21.46;29.93;98615.13;5021175;28;1910;-73
2023/05/13 09:24:22;;;;;;;;;;;;;;;21.45;29.77;98602.22;5056310;28;1630;-73
2023/05/13 09:26:48;;;;;;;;;;;;;;;21.47;29.70;98611.06;4995275;28;1151;-74
2023/05/13 09:29:15;;;;;;;;;;;;;;;21.66;29.56;98609.53;4978356;28;1174;-73
2023/05/13 09:31:41;;;;;;;;;;;;;;;21.56;29.88;98602.03;4960981;28;1411;-73
2023/05/13 09:34:06;;;;;;;;;;;;;;;21.85;29.43;98611.59;4939939;29;1230;-73
2023/05/13 09:36:32;;;;;;;;;;;;;;;22.29;28.82;98615.28;4924101;29;932;-73
2023/05/13 09:38:58;;;;;;;;;;;;;;;22.01;29.29;98604.44;4940060;29;1087;-73
2023/05/13 09:41:26;;;;;;;;;;;;;;;21.85;29.49;98614.44;4906292;29;1915;-73
2023/05/13 09:43:52;;;;;;;;;;;;;;;21.62;29.50;98617.28;4904566;29;1329;-73
2023/05/13 09:46:18;;;;;;;;;;;;;;;21.81;29.24;98625.06;4936954;29;1072;-73
2023/05/13 09:48:43;;;;;;;;;;;;;;;21.65;29.70;98615.63;4930676;29;1266;-73
2023/05/13 09:51:09;;;;;;;;;;;;;;;21.63;29.45;98604.72;4917889;29;1076;-72
2023/05/13 09:53:34;;;;;;;;;;;;;;;21.61;29.40;98610.03;4932198;29;1381;-73
2023/05/13 09:56:00;;;;;;;;;;;;;;;21.77;29.20;98612.97;4936730;29;945;-73
2023/05/13 09:58:29;;;;;;;;;;;;;;;21.31;29.98;98625.88;4920605;29;1161;-73
2023/05/13 10:00:55;;;;;;;;;;;;;;;21.43;29.71;98623.66;4936203;29;1251;-73
2023/05/13 10:03:21;;;;;;;;;;;;;;;21.23;30.07;98624.34;4966291;28;1958;-72
2023/05/13 10:05:46;;;;;;;;;;;;;;;21.43;30.02;98609.50;5028099;28;1126;-74
2023/05/13 10:08:12;;;;;;;;;;;;;;;22.26;28.79;98601.97;5037304;28;1343;-73
2023/05/13 10:10:38;;;;;;;;;;;;;;;22.53;28.67;98595.34;5038241;28;1396;-72
2023/05/13 10:13:10;;;;;;;;;;;;;;;22.32;28.55;98603.06;5020637;28;1140;-74
2023/05/13 10:15:36;;;;;;;;;;;;;;;21.63;29.74;98613.22;5024198;28;1683;-73
2023/05/13 10:18:01;;;;;;;;;;;;;;;21.54;29.64;98615.78;5040988;28;926;-73
2023/05/13 10:20:27;;;;;;;;;;;;;;;21.45;29.72;98601.38;5041336;28;1368;-73
2023/05/13 10:22:53;;;;;;;;;;;;;;;21.55;29.58;98600.41;5057640;28;1910;-74
2023/05/13 10:25:19;;;;;;;;;;;;;;;21.35;29.98;98593.88;5041071;28;929;-72
2023/05/13 10:27:44;;;;;;;;;;;;;;;21.38;30.45;98596.66;5040818;28;995;-73
2023/05/13 10:30:10;;;;;;;;;;;;;;;22.33;29.00;98593.34;5055425;28;1570;-73
2023/05/13 10:32:37;;;;;;;;;;;;;;;22.52;28.45;98596.59;5041535;28;1482;-73
2023/05/13 10:35:12;;;;;;;;;;;;;;;21.97;29.06;98598.06;5077364;28;1112;-73
2023/05/13 10:37:45;;;;;;;;;;;;;;;21.68;29.46;98595.75;5060563;28;1107;-73
2023/05/13 10:40:13;;;;;;;;;;;;;;;21.40;30.11;98582.06;5059735;28;1495;-73
2023/05/13 10:42:41;;;;;;;;;;;;;;;21.48;30.10;98572.22;5082891;28;1979;-73
2023/05/13 10:45:07;;;;;;;;;;;;;;;21.35;30.30;98572.03;5097702;28;973;-73
2023/05/13 10:47:32;;;;;;;;;;;;;;;21.43;30.28;98564.22;5097106;28;1009;-73
2023/05/13 10:50:03;;;;;;;;;;;;;;;21.61;29.71;98570.38;5095212;28;1465;-73
2023/05/13 10:52:47;;;;;;;;;;;;;;;21.23;30.23;98561.28;5097259;28;1120;-72
2023/05/13 10:55:17;;;;;;;;;;;;;;;21.51;29.73;98560.03;5097185;28;899;-73
2023/05/13 10:57:49;;;;;;;;;;;;;;;21.46;30.06;98567.00;5080259;28;923;-73
2023/05/13 11:00:15;;;;;;;;;;;;;;;21.74;29.79;98567.72;5095422;28;1312;-74
2023/05/13 11:02:40;;;;;;;;;;;;;;;22.02;29.58;98572.88;5096998;28;1980;-73
2023/05/13 11:05:06;;;;;;;;;;;;;;;22.05;29.51;98574.81;5074550;28;1047;-73
2023/05/13 11:07:32;;;;;;;;;;;;;;;21.85;29.69;98574.78;5075744;28;1437;-72
2023/05/13 11:09:58;;;;;;;;;;;;;;;21.65;30.06;98575.97;5036514;28;1071;-72
2023/05/13 11:12:24;;;;;;;;;;;;;;;21.78;29.82;98576.97;5020058;28;1050;-75
2023/05/13 11:14:49;;;;;;;;;;;;;;;21.54;29.92;98565.63;5016565;28;959;-73
2023/05/13 11:17:17;;;;;;;;;;;;;;;21.50;29.86;98575.41;5012896;28;1362;-73
2023/05/13 11:19:49;;;;;;;;;;;;;;;21.25;30.42;98579.44;5000352;28;1238;-73
2023/05/13 11:22:15;;;;;;;;;;;;;;;21.44;30.02;98585.63;5000090;28;1981;-73
2023/05/13 11:24:43;;;;;;;;;;;;;;;21.49;29.71;98579.47;4983955;28;1112;-73
2023/05/13 11:27:14;;;;;;;;;;;;;;;21.43;29.78;98584.03;4999080;28;1339;-74
2023/05/13 11:29:42;;;;;;;;;;;;;;;22.06;29.10;98581.28;4999998;28;1096;-72
2023/05/13 11:32:08;;;;;;;;;;;;;;;22.16;29.19;98582.34;5013795;28;1207;-73
2023/05/13 11:34:33;;;;;;;;;;;;;;;22.17;28.89;98579.06;4960871;28;936;-73
2023/05/13 11:37:02;;;;;;;;;;;;;;;21.90;29.22;98581.19;4960619;28;1304;-73
2023/05/13 11:39:27;;;;;;;;;;;;;;;21.55;29.74;98583.41;4958048;29;989;-74
2023/05/13 11:41:56;;;;;;;;;;;;;;;21.30;30.01;98573.31;4946374;28;1906;-73
2023/05/13 11:44:22;;;;;;;;;;;;;;;21.42;29.45;98576.78;4977219;28;931;-73
2023/05/13 11:46:51;;;;;;;;;;;;;;;21.61;29.51;98564.72;4945264;28;1309;-73
2023/05/13 11:49:35;;;;;;;;;;;;;;;21.54;29.50;98581.81;5027298;28;1516;-72
2023/05/13 11:52:21;;;;;;;;;;;;;;;21.35;29.65;98580.53;5052706;28;1277;-73
2023/05/13 11:54:47;;;;;;;;;;;;;;;21.38;29.74;98578.84;5036027;28;1035;-73
2023/05/13 11:57:33;;;;;;;;;;;;;;;21.84;28.81;98573.19;5034419;28;1463;-73
2023/05/13 11:59:59;;;;;;;;;;;;;;;21.66;29.32;98583.22;5023747;28;1439;-73
2023/05/13 12:02:26;;;;;;;;;;;;;;;21.67;29.31;98591.31;5019290;28;1902;-73
2023/05/13 12:04:52;;;;;;;;;;;;;;;21.79;28.72;98593.50;5035431;28;1023;-73
2023/05/13 12:07:23;;;;;;;;;;;;;;;21.65;28.75;98609.94;5002054;28;1369;-72
2023/05/13 12:09:49;;;;;;;;;;;;;;;21.58;29.00;98616.53;5052162;28;1067;-73
2023/05/13 12:12:15;;;;;;;;;;;;;;;21.45;29.24;98607.03;5074110;28;1056;-73
2023/05/13 12:14:42;;;;;;;;;;;;;;;21.98;28.33;98611.00;5089621;28;1232;-74
2023/05/13 12:17:08;;;;;;;;;;;;;;;22.15;28.10;98609.88;5073301;28;1521;-73
2023/05/13 12:19:33;;;;;;;;;;;;;;;21.72;28.76;98613.47;5099107;28;956;-73
2023/05/13 12:21:59;;;;;;;;;;;;;;;21.74;28.55;98608.16;5098992;28;1914;-72
2023/05/13 12:24:25;;;;;;;;;;;;;;;21.54;28.94;98610.13;5098939;28;1114;-73
2023/05/13 12:26:50;;;;;;;;;;;;;;;21.64;28.86;98600.66;5099099;28;946;-72
2023/05/13 12:29:16;;;;;;;;;;;;;;;21.57;28.67;98592.28;5098301;28;1383;-73
2023/05/13 12:31:42;;;;;;;;;;;;;;;21.53;28.91;98585.88;5098850;28;1015;-73
2023/05/13 12:34:08;;;;;;;;;;;;;;;21.52;28.96;98589.97;5081101;28;1734;-73
2023/05/13 12:36:36;;;;;;;;;;;;;;;21.49;28.89;98597.25;5094442;28;1721;-73
2023/05/13 12:39:03;;;;;;;;;;;;;;;22.33;27.65;98596.16;5077262;28;985;-73
2023/05/13 12:41:30;;;;;;;;;;;;;;;22.01;28.01;98598.78;5078367;28;1946;-73
2023/05/13 12:43:56;;;;;;;;;;;;;;;21.70;28.66;98595.28;5037942;28;1246;-73
2023/05/13 12:46:22;;;;;;;;;;;;;;;21.55;28.81;98594.75;5028415;28;1305;-73
2023/05/13 12:48:47;;;;;;;;;;;;;;;21.38;28.92;98595.84;5055072;28;1002;-73
2023/05/13 12:51:14;;;;;;;;;;;;;;;21.42;28.74;98590.94;5022695;28;922;-73
2023/05/13 12:53:41;;;;;;;;;;;;;;;21.56;28.85;98590.69;5035078;28;1066;-73